createdAt,value
2018-02-07T00:01:43.759Z,54.00
2018-02-07T00:04:11.685Z,50.27
2018-02-07T00:06:39.271Z,55.57
2018-02-07T00:09:07.054Z,52.63
2018-02-07T00:11:34.731Z,41.73
2018-02-07T00:14:02.365Z,41.67
2018-02-07T00:16:29.938Z,41.97
2018-02-07T00:18:57.557Z,40.97
2018-02-07T00:21:25.116Z,37.57
2018-02-07T00:23:52.706Z,43.53
2018-02-07T00:26:20.632Z,50.00
2018-02-07T00:28:48.218Z,48.50
2018-02-07T00:31:16.387Z,34.30
2018-02-07T00:33:43.968Z,44.73
2018-02-07T00:36:11.723Z,48.93
2018-02-07T00:38:39.340Z,41.20
2018-02-07T00:41:07.066Z,46.33
2018-02-07T00:43:34.651Z,45.40
2018-02-07T00:46:02.296Z,43.40
2018-02-07T00:48:30.011Z,44.97
2018-02-07T00:50:57.601Z,39.33
2018-02-07T00:53:25.750Z,39.30
2018-02-07T00:55:53.380Z,33.80
2018-02-07T00:58:20.967Z,46.13
2018-02-07T01:00:48.579Z,46.47
2018-02-07T01:03:16.764Z,50.43
2018-02-07T01:05:44.313Z,55.67
2018-02-07T01:08:11.880Z,55.73
2018-02-07T01:10:39.503Z,46.90
2018-02-07T01:13:07.501Z,44.67
2018-02-07T01:15:35.069Z,45.27
2018-02-07T01:18:02.717Z,56.07
2018-02-07T01:20:30.279Z,56.10
2018-02-07T01:22:57.840Z,43.97
2018-02-07T01:25:25.517Z,43.57
2018-02-07T01:27:53.066Z,40.77
2018-02-07T01:30:20.660Z,37.67
2018-02-07T01:32:48.237Z,43.40
2018-02-07T01:35:15.817Z,43.27
2018-02-07T01:37:43.405Z,43.37
2018-02-07T01:40:10.980Z,41.30
2018-02-07T01:42:38.578Z,39.43
2018-02-07T01:45:06.176Z,45.17
2018-02-07T01:47:33.839Z,45.97
2018-02-07T01:50:01.581Z,48.13
2018-02-07T01:52:29.122Z,34.00
2018-02-07T01:54:56.693Z,48.53
2018-02-07T01:57:24.309Z,41.50
2018-02-07T01:59:51.909Z,38.50
2018-02-07T02:02:19.475Z,64.37
2018-02-07T02:04:47.117Z,41.00
2018-02-07T02:07:14.692Z,43.30
2018-02-07T02:09:42.323Z,45.93
2018-02-07T02:12:09.935Z,35.97
2018-02-07T02:14:37.495Z,41.07
2018-02-07T02:17:05.140Z,45.50
2018-02-07T02:19:32.788Z,34.87
2018-02-07T02:22:00.364Z,45.63
2018-02-07T02:24:28.004Z,46.37
2018-02-07T02:26:55.569Z,42.90
2018-02-07T02:29:23.172Z,41.80
2018-02-07T02:31:50.971Z,43.50
2018-02-07T02:34:18.552Z,41.47
2018-02-07T02:36:46.131Z,40.07
2018-02-07T02:39:13.794Z,48.43
2018-02-07T02:41:41.367Z,37.63
2018-02-07T02:44:09.035Z,40.20
2018-02-07T02:46:36.631Z,43.40
2018-02-07T02:49:04.674Z,36.37
2018-02-07T02:51:32.788Z,36.03
2018-02-07T02:54:00.376Z,35.67
2018-02-07T02:56:27.959Z,40.60
2018-02-07T02:58:55.559Z,37.97
2018-02-07T03:01:23.135Z,35.60
2018-02-07T03:03:50.717Z,41.67
2018-02-07T03:06:18.293Z,43.07
2018-02-07T03:08:46.879Z,37.50
2018-02-07T03:11:14.731Z,39.07
2018-02-07T03:13:42.544Z,50.67
2018-02-07T03:16:10.153Z,50.53
2018-02-07T03:18:37.802Z,40.87
2018-02-07T03:21:05.447Z,34.60
2018-02-07T03:23:33.018Z,34.07
2018-02-07T03:26:00.603Z,39.43
2018-02-07T03:28:28.166Z,39.80
2018-02-07T03:30:56.601Z,36.23
2018-02-07T03:33:24.326Z,39.07
2018-02-07T03:35:51.922Z,40.57
2018-02-07T03:38:19.591Z,42.70
2018-02-07T03:40:47.190Z,44.37
2018-02-07T03:43:15.152Z,42.80
2018-02-07T03:45:42.713Z,44.40
2018-02-07T03:48:12.406Z,43.80
2018-02-07T03:50:40.526Z,38.13
2018-02-07T03:53:08.689Z,37.17
2018-02-07T03:55:36.321Z,43.07
2018-02-07T03:58:03.892Z,41.93
2018-02-07T04:00:31.513Z,40.80
2018-02-07T04:02:59.095Z,53.27
2018-02-07T04:05:26.661Z,35.77
2018-02-07T04:07:54.214Z,44.50
2018-02-07T04:10:21.826Z,38.93
2018-02-07T04:12:49.408Z,34.80
2018-02-07T04:15:16.971Z,40.40
2018-02-07T04:17:44.574Z,38.90
2018-02-07T04:20:12.368Z,37.00
2018-02-07T04:22:39.955Z,39.30
2018-02-07T04:25:07.565Z,44.63
2018-02-07T04:27:35.174Z,45.27
2018-02-07T04:30:02.738Z,40.33
2018-02-07T04:32:30.336Z,37.47
2018-02-07T04:34:57.959Z,50.40
2018-02-07T04:37:25.520Z,158.53
2018-02-07T04:39:53.148Z,170.47
2018-02-07T04:42:20.757Z,137.23
2018-02-07T04:44:51.976Z,108.67
2018-02-07T04:47:19.782Z,116.77
2018-02-07T04:49:47.452Z,87.63
2018-02-07T04:52:15.074Z,141.07
2018-02-07T04:54:42.773Z,80.43
2018-02-07T04:57:11.502Z,63.47
2018-02-07T04:59:39.144Z,44.60
2018-02-07T05:02:06.745Z,42.90
2018-02-07T05:04:34.304Z,36.67
2018-02-07T05:07:01.894Z,39.30
2018-02-07T05:09:29.505Z,36.43
2018-02-07T05:11:57.081Z,68.43
2018-02-07T05:14:24.702Z,43.00
2018-02-07T05:16:52.299Z,38.47
2018-02-07T05:19:19.851Z,36.33
2018-02-07T05:21:47.550Z,44.17
2018-02-07T05:24:15.148Z,41.50
2018-02-07T05:26:42.767Z,40.83
2018-02-07T05:29:11.012Z,35.87
2018-02-07T05:31:38.601Z,69.03
2018-02-07T05:34:06.296Z,44.87
2018-02-07T05:36:33.884Z,37.50
2018-02-07T05:39:01.460Z,40.50
2018-02-07T05:41:29.526Z,37.90
2018-02-07T05:43:57.073Z,45.90
2018-02-07T05:46:24.672Z,40.27
2018-02-07T05:48:52.233Z,38.70
2018-02-07T05:51:19.801Z,37.70
2018-02-07T05:53:47.357Z,45.60
2018-02-07T05:56:14.944Z,42.60
2018-02-07T05:58:42.558Z,51.37
2018-02-07T06:01:10.144Z,52.07
2018-02-07T06:03:38.116Z,71.47
2018-02-07T06:06:05.704Z,46.70
2018-02-07T06:08:33.271Z,57.27
2018-02-07T06:11:00.849Z,45.43
2018-02-07T06:13:28.816Z,45.33
2018-02-07T06:15:56.977Z,56.53
2018-02-07T06:18:24.654Z,52.77
2018-02-07T06:20:52.285Z,40.27
2018-02-07T06:23:19.912Z,53.50
2018-02-07T06:25:47.488Z,56.00
2018-02-07T06:28:15.132Z,53.97
2018-02-07T06:30:42.788Z,46.60
2018-02-07T06:33:11.006Z,49.20
2018-02-07T06:35:38.713Z,60.23
2018-02-07T06:38:06.269Z,38.30
2018-02-07T06:40:34.835Z,44.80
2018-02-07T06:43:02.466Z,48.80
2018-02-07T06:45:30.105Z,40.47
2018-02-07T06:47:57.677Z,45.00
2018-02-07T06:50:25.276Z,55.10
2018-02-07T06:52:52.874Z,51.03
2018-02-07T06:55:20.440Z,49.00
2018-02-07T06:57:48.027Z,46.37
2018-02-07T07:00:15.600Z,49.10
2018-02-07T07:02:43.170Z,49.67
2018-02-07T07:05:11.054Z,51.20
2018-02-07T07:07:39.818Z,49.30
2018-02-07T07:10:07.442Z,48.00
2018-02-07T07:12:35.033Z,61.03
2018-02-07T07:15:04.615Z,64.53
2018-02-07T07:17:32.197Z,50.40
2018-02-07T07:19:59.769Z,47.37
2018-02-07T07:22:27.342Z,45.03
2018-02-07T07:24:54.942Z,67.40
2018-02-07T07:27:23.008Z,44.90
2018-02-07T07:29:52.530Z,59.30
2018-02-07T07:32:20.160Z,39.90
2018-02-07T07:34:49.295Z,45.50
2018-02-07T07:37:17.007Z,44.80
2018-02-07T07:39:44.593Z,48.70
2018-02-07T07:42:14.449Z,55.70
2018-02-07T07:44:42.058Z,53.60
2018-02-07T07:47:10.493Z,55.10
2018-02-07T07:49:38.866Z,66.53
2018-02-07T07:52:06.495Z,69.10
2018-02-07T07:54:34.095Z,61.70
2018-02-07T07:57:01.757Z,65.00
2018-02-07T07:59:29.367Z,61.87
2018-02-07T08:01:56.942Z,74.03
2018-02-07T08:04:24.566Z,56.87
2018-02-07T08:06:52.148Z,59.13
2018-02-07T08:09:19.741Z,57.87
2018-02-07T08:11:47.304Z,67.40
2018-02-07T08:14:14.997Z,69.30
2018-02-07T08:16:42.610Z,81.83
2018-02-07T08:19:10.670Z,64.43
2018-02-07T08:21:38.266Z,54.80
2018-02-07T08:24:05.864Z,56.50
2018-02-07T08:26:33.439Z,48.53
2018-02-07T08:29:01.006Z,56.20
2018-02-07T08:31:31.154Z,57.97
2018-02-07T08:33:58.717Z,48.17
2018-02-07T08:36:26.313Z,58.00
2018-02-07T08:38:53.905Z,45.77
2018-02-07T08:41:21.774Z,44.27
2018-02-07T08:43:49.344Z,44.30
2018-02-07T08:46:16.942Z,43.67
2018-02-07T08:48:44.503Z,36.87
2018-02-07T08:51:12.209Z,41.30
2018-02-07T08:53:39.805Z,40.13
2018-02-07T08:56:07.400Z,38.87
2018-02-07T08:58:35.017Z,32.27
2018-02-07T09:01:02.628Z,38.33
2018-02-07T09:03:30.504Z,33.93
2018-02-07T09:05:58.225Z,33.17
2018-02-07T09:08:25.859Z,34.50
2018-02-07T09:10:53.454Z,25.77
2018-02-07T09:13:21.088Z,28.60
2018-02-07T09:15:48.687Z,31.00
2018-02-07T09:18:16.282Z,36.17
2018-02-07T09:20:43.963Z,31.93
2018-02-07T09:23:11.951Z,30.80
2018-02-07T09:25:39.516Z,30.97
2018-02-07T09:28:07.113Z,27.90
2018-02-07T09:30:34.694Z,30.23
2018-02-07T09:33:02.285Z,29.10
2018-02-07T09:35:29.913Z,31.70
2018-02-07T09:37:57.511Z,29.40
2018-02-07T09:40:25.124Z,32.17
2018-02-07T09:42:52.721Z,47.67
2018-02-07T09:45:20.307Z,26.70
2018-02-07T09:47:47.873Z,27.90
2018-02-07T09:50:15.477Z,22.37
2018-02-07T09:52:43.129Z,32.80
2018-02-07T09:55:10.923Z,29.40
2018-02-07T09:57:38.514Z,32.97
2018-02-07T10:00:06.244Z,25.73
2018-02-07T10:02:33.787Z,32.57
2018-02-07T10:05:01.386Z,35.00
2018-02-07T10:07:28.968Z,35.03
2018-02-07T10:09:56.524Z,29.47
2018-02-07T10:12:24.672Z,29.70
2018-02-07T10:14:52.233Z,31.13
2018-02-07T10:17:19.822Z,27.63
2018-02-07T10:19:47.458Z,23.60
2018-02-07T10:22:15.057Z,23.83
2018-02-07T10:24:42.649Z,24.03
2018-02-07T10:27:10.673Z,26.97
2018-02-07T10:29:38.263Z,19.20
2018-02-07T10:32:05.840Z,25.17
2018-02-07T10:34:33.425Z,25.90
2018-02-07T10:37:01.011Z,23.83
2018-02-07T10:39:28.920Z,22.83
2018-02-07T10:41:56.979Z,24.33
2018-02-07T10:44:24.562Z,23.00
2018-02-07T10:46:52.122Z,25.90
2018-02-07T10:49:19.797Z,22.30
2018-02-07T10:51:47.429Z,24.53
2018-02-07T10:54:15.055Z,24.70
2018-02-07T10:56:42.629Z,21.50
2018-02-07T10:59:10.203Z,23.73
2018-02-07T11:01:45.641Z,24.93
2018-02-07T11:04:13.754Z,24.97
2018-02-07T11:06:41.346Z,28.70
2018-02-07T11:09:08.955Z,24.97
2018-02-07T11:11:38.559Z,25.67
2018-02-07T11:14:06.240Z,24.20
2018-02-07T11:16:33.892Z,22.63
2018-02-07T11:19:02.518Z,27.07
2018-02-07T11:21:30.092Z,29.77
2018-02-07T11:23:57.732Z,23.27
2018-02-07T11:26:25.746Z,36.00
2018-02-07T11:28:53.417Z,24.53
2018-02-07T11:31:21.008Z,22.53
2018-02-07T11:33:48.597Z,32.07
2018-02-07T11:36:16.176Z,26.03
2018-02-07T11:38:43.818Z,23.67
2018-02-07T11:41:11.648Z,18.73
2018-02-07T11:43:39.278Z,25.07
2018-02-07T11:46:06.900Z,24.37
2018-02-07T11:48:34.494Z,24.60
2018-02-07T11:51:02.075Z,18.13
2018-02-07T11:53:29.813Z,20.80
2018-02-07T11:55:57.394Z,31.20
2018-02-07T11:58:24.958Z,23.57
2018-02-07T12:00:52.611Z,21.70
2018-02-07T12:03:20.441Z,32.33
2018-02-07T12:05:48.127Z,29.70
2018-02-07T12:08:15.879Z,70.33
2018-02-07T12:10:43.512Z,31.50
2018-02-07T12:13:11.855Z,24.17
2018-02-07T12:15:39.495Z,22.47
2018-02-07T12:18:07.129Z,65.23
2018-02-07T12:20:34.919Z,47.80
2018-02-07T12:23:02.567Z,134.93
2018-02-07T12:25:30.165Z,50.40
2018-02-07T12:27:57.759Z,189.37
2018-02-07T12:30:25.390Z,27.60
2018-02-07T12:32:53.007Z,22.60
2018-02-07T12:35:20.604Z,23.20
2018-02-07T12:37:48.232Z,31.97
2018-02-07T12:40:15.802Z,40.93
2018-02-07T12:42:43.385Z,33.90
2018-02-07T12:45:11.691Z,24.33
2018-02-07T12:47:39.282Z,28.30
2018-02-07T12:50:06.887Z,25.97
2018-02-07T12:52:34.525Z,23.30
2018-02-07T12:55:02.097Z,22.60
2018-02-07T12:57:30.655Z,19.93
2018-02-07T12:59:58.273Z,19.93
2018-02-07T13:02:26.926Z,16.33
2018-02-07T13:04:54.512Z,17.20
2018-02-07T13:07:22.219Z,17.50
2018-02-07T13:09:51.213Z,23.23
2018-02-07T13:12:18.801Z,18.93
2018-02-07T13:14:46.408Z,15.97
2018-02-07T13:17:14.175Z,33.27
2018-02-07T13:19:41.741Z,17.10
2018-02-07T13:22:09.482Z,18.97
2018-02-07T13:24:37.126Z,19.27
2018-02-07T13:27:05.755Z,22.50
2018-02-07T13:29:33.406Z,18.97
2018-02-07T13:32:00.987Z,18.43
2018-02-07T13:34:29.349Z,21.93
2018-02-07T13:36:57.299Z,16.00
2018-02-07T13:39:25.000Z,16.87
2018-02-07T13:41:52.626Z,22.47
2018-02-07T13:44:20.224Z,13.20
2018-02-07T13:46:48.388Z,15.90
2018-02-07T13:49:16.089Z,17.27
2018-02-07T13:51:43.665Z,22.43
2018-02-07T13:54:11.250Z,24.13
2018-02-07T13:56:38.928Z,26.27
2018-02-07T13:59:06.499Z,15.03
2018-02-07T14:01:34.428Z,13.50
2018-02-07T14:04:02.006Z,16.57
2018-02-07T14:06:29.578Z,16.20
2018-02-07T14:08:57.258Z,25.20
2018-02-07T14:11:26.033Z,13.50
2018-02-07T14:13:53.667Z,11.17
2018-02-07T14:16:21.298Z,13.60
2018-02-07T14:18:49.128Z,11.80
2018-02-07T14:21:17.137Z,14.47
2018-02-07T14:23:44.930Z,10.57
2018-02-07T14:26:12.711Z,22.30
2018-02-07T14:28:40.577Z,16.27
2018-02-07T14:31:08.767Z,16.80
2018-02-07T14:33:36.542Z,32.87
2018-02-07T14:36:04.487Z,22.77
2018-02-07T14:38:32.101Z,12.87
2018-02-07T14:40:59.733Z,28.50
2018-02-07T14:43:28.077Z,15.10
2018-02-07T14:45:55.684Z,15.30
2018-02-07T14:48:23.292Z,12.90
2018-02-07T14:50:50.881Z,19.63
2018-02-07T14:53:18.482Z,14.73
2018-02-07T14:55:46.972Z,12.87
2018-02-07T14:58:14.903Z,11.57
2018-02-07T15:00:42.493Z,12.13
2018-02-07T15:03:10.689Z,9.70
2018-02-07T15:05:38.324Z,10.13
2018-02-07T15:08:05.928Z,14.70
2018-02-07T15:10:35.157Z,29.53
2018-02-07T15:13:05.918Z,21.30
2018-02-07T15:15:33.838Z,26.63
2018-02-07T15:18:04.972Z,12.57
2018-02-07T15:20:39.306Z,15.70
2018-02-07T15:23:09.688Z,12.13
2018-02-07T15:25:37.792Z,9.17
2018-02-07T15:28:05.368Z,9.07
2018-02-07T15:30:33.002Z,7.47
2018-02-07T15:33:00.626Z,10.37
2018-02-07T15:35:29.594Z,16.83
2018-02-07T15:37:58.925Z,32.80
2018-02-07T15:40:26.594Z,38.67
2018-02-07T15:42:54.273Z,44.43
2018-02-07T15:45:21.843Z,34.53
2018-02-07T15:47:49.489Z,43.63
2018-02-07T15:50:17.125Z,16.27
2018-02-07T15:52:46.300Z,18.63
2018-02-07T15:55:14.384Z,13.23
2018-02-07T15:57:43.907Z,21.70
2018-02-07T16:00:11.594Z,11.80
2018-02-07T16:02:39.176Z,65.03
2018-02-07T16:05:07.406Z,73.13
2018-02-07T16:07:35.039Z,55.27
2018-02-07T16:10:02.670Z,49.90
2018-02-07T16:12:30.309Z,25.87
2018-02-07T16:14:57.959Z,58.03
2018-02-07T16:17:26.789Z,55.67
2018-02-07T16:19:54.358Z,30.07
2018-02-07T16:22:21.966Z,15.37
2018-02-07T16:24:49.614Z,12.33
2018-02-07T16:27:17.565Z,10.93
2018-02-07T16:29:45.133Z,13.40
2018-02-07T16:32:12.806Z,15.70
2018-02-07T16:34:40.417Z,21.00
2018-02-07T16:37:08.143Z,26.40
2018-02-07T16:39:36.106Z,27.47
2018-02-07T16:42:03.678Z,21.33
2018-02-07T16:44:31.338Z,22.00
2018-02-07T16:46:59.013Z,19.93
2018-02-07T16:49:27.259Z,22.37
2018-02-07T16:51:54.852Z,17.17
2018-02-07T16:54:25.519Z,17.70
2018-02-07T16:56:53.325Z,11.10
2018-02-07T16:59:22.185Z,10.30
2018-02-07T17:01:50.044Z,16.50
2018-02-07T17:04:17.678Z,17.90
2018-02-07T17:06:45.356Z,16.57
2018-02-07T17:09:12.992Z,21.77
2018-02-07T17:11:40.631Z,19.50
2018-02-07T17:14:08.237Z,16.77
2018-02-07T17:16:35.970Z,27.40
2018-02-07T17:19:03.607Z,28.97
2018-02-07T17:21:32.135Z,35.27
2018-02-07T17:23:59.807Z,37.73
2018-02-07T17:26:27.821Z,28.20
2018-02-07T17:28:55.405Z,34.67
2018-02-07T17:31:22.990Z,53.20
2018-02-07T17:33:50.583Z,40.30
2018-02-07T17:38:50.227Z,52.80
2018-02-07T17:44:08.406Z,45.50
2018-02-07T17:46:36.004Z,36.67
2018-02-07T17:49:03.585Z,25.70
2018-02-07T17:51:31.237Z,30.20
2018-02-07T17:53:59.820Z,53.40
2018-02-07T17:56:27.406Z,40.87
2018-02-07T17:58:55.022Z,32.57
2018-02-07T18:01:22.664Z,40.17
2018-02-07T18:03:50.258Z,51.47
2018-02-07T18:06:17.829Z,50.27
2018-02-07T18:08:45.536Z,39.30
2018-02-07T18:11:13.840Z,34.80
2018-02-07T18:13:41.460Z,37.23
2018-02-07T18:16:09.358Z,35.07
2018-02-07T18:18:36.971Z,22.53
2018-02-07T18:21:04.596Z,23.90
2018-02-07T18:23:32.521Z,31.97
2018-02-07T18:26:00.182Z,30.33
2018-02-07T18:28:27.810Z,29.17
2018-02-07T18:30:55.405Z,23.43
2018-02-07T18:33:23.944Z,25.53
2018-02-07T18:35:51.493Z,39.40
2018-02-07T18:38:19.077Z,27.23
2018-02-07T18:40:46.793Z,27.90
2018-02-07T18:43:14.398Z,26.33
2018-02-07T18:45:42.033Z,25.83
2018-02-07T18:48:09.720Z,30.87
2018-02-07T18:53:09.016Z,35.30
2018-02-07T18:55:36.650Z,34.70
2018-02-07T18:58:04.282Z,28.57
2018-02-07T19:00:31.889Z,37.87
2018-02-07T19:02:59.895Z,43.23
2018-02-07T19:05:27.677Z,33.70
2018-02-07T19:07:56.825Z,31.47
2018-02-07T19:10:24.438Z,34.90
2018-02-07T19:12:52.012Z,30.73
2018-02-07T19:15:21.392Z,30.00
2018-02-07T19:17:49.022Z,34.80
2018-02-07T19:20:16.650Z,31.37
2018-02-07T19:22:44.226Z,33.37
2018-02-07T19:25:12.255Z,30.20
2018-02-07T19:27:39.850Z,29.07
2018-02-07T19:30:07.417Z,34.43
2018-02-07T19:32:35.164Z,32.40
2018-02-07T19:35:02.741Z,32.80
2018-02-07T19:37:30.362Z,35.53
2018-02-07T19:39:57.964Z,37.33
2018-02-07T19:42:27.256Z,44.03
2018-02-07T19:44:55.162Z,38.60
2018-02-07T19:47:25.086Z,35.83
2018-02-07T19:49:55.891Z,38.93
2018-02-07T19:52:24.850Z,37.50
2018-02-07T19:54:52.565Z,38.00
2018-02-07T19:57:20.332Z,35.83
2018-02-07T19:59:47.928Z,35.43
2018-02-07T20:02:15.614Z,30.30
2018-02-07T20:04:43.229Z,33.50
2018-02-07T20:07:11.659Z,37.20
2018-02-07T20:09:39.306Z,37.13
2018-02-07T20:12:06.974Z,35.10
2018-02-07T20:14:34.603Z,41.13
2018-02-07T20:17:02.232Z,51.00
2018-02-07T20:19:31.329Z,35.13
2018-02-07T20:21:59.037Z,40.73
2018-02-07T20:24:26.630Z,41.07
2018-02-07T20:26:54.218Z,44.77
2018-02-07T20:29:22.610Z,40.63
2018-02-07T20:31:50.197Z,45.13
2018-02-07T20:34:17.848Z,41.47
2018-02-07T20:36:45.465Z,41.93
2018-02-07T20:39:15.818Z,47.00
2018-02-07T20:41:43.494Z,38.00
2018-02-07T20:44:11.089Z,41.40
2018-02-07T20:49:33.017Z,53.90
2018-02-07T20:52:00.614Z,64.80
2018-02-07T20:54:28.234Z,40.90
2018-02-07T20:56:55.898Z,59.10
2018-02-07T20:59:24.414Z,40.77
2018-02-07T21:01:52.863Z,48.23
2018-02-07T21:04:22.065Z,44.30
2018-02-07T21:06:49.730Z,41.63
2018-02-07T21:09:17.893Z,51.30
2018-02-07T21:11:45.888Z,43.67
2018-02-07T21:14:13.549Z,48.87
2018-02-07T21:16:41.491Z,52.00
2018-02-07T21:19:09.194Z,50.00
2018-02-07T21:21:36.803Z,44.13
2018-02-07T21:24:04.395Z,46.03
2018-02-07T21:26:31.956Z,52.13
2018-02-07T21:28:59.765Z,43.30
2018-02-07T21:31:27.394Z,49.03
2018-02-07T21:33:54.967Z,37.83
2018-02-07T21:36:23.504Z,43.47
2018-02-07T21:38:51.158Z,37.53
2018-02-07T21:41:19.716Z,48.10
2018-02-07T21:43:47.277Z,38.83
2018-02-07T21:46:14.870Z,43.83
2018-02-07T21:48:42.444Z,38.47
2018-02-07T21:51:11.346Z,39.60
2018-02-07T21:53:38.917Z,32.30
2018-02-07T21:56:06.603Z,40.43
2018-02-07T21:58:34.316Z,46.27
2018-02-07T22:01:01.906Z,43.70
2018-02-07T22:03:29.500Z,37.13
2018-02-07T22:05:57.295Z,38.60
2018-02-07T22:08:24.930Z,40.07
2018-02-07T22:10:52.554Z,36.57
2018-02-07T22:13:20.548Z,37.90
2018-02-07T22:15:48.263Z,42.50
2018-02-07T22:18:15.847Z,36.37
2018-02-07T22:20:43.502Z,49.00
2018-02-07T22:23:12.287Z,36.87
2018-02-07T22:25:39.933Z,39.63
2018-02-07T22:28:07.647Z,42.87
2018-02-07T22:30:35.560Z,41.20
2018-02-07T22:33:03.183Z,43.00
2018-02-07T22:35:30.762Z,38.47
2018-02-07T22:37:58.338Z,40.03
2018-02-07T22:40:25.969Z,41.87
2018-02-07T22:42:53.611Z,42.40
2018-02-07T22:45:21.211Z,40.03
2018-02-07T22:47:48.831Z,41.27
2018-02-07T22:50:16.448Z,40.63
2018-02-07T22:52:44.017Z,45.27
2018-02-07T22:55:12.228Z,45.57
2018-02-07T22:57:39.855Z,52.37
2018-02-07T23:00:07.572Z,49.47
2018-02-07T23:02:35.170Z,49.87
2018-02-07T23:05:03.137Z,47.70
2018-02-07T23:07:30.760Z,49.30
2018-02-07T23:09:58.363Z,46.90
2018-02-07T23:12:25.982Z,46.83
2018-02-07T23:14:55.891Z,48.13
2018-02-07T23:17:23.602Z,52.70
2018-02-07T23:19:51.167Z,55.47
2018-02-07T23:22:18.895Z,44.30
2018-02-07T23:24:46.491Z,86.57
2018-02-07T23:27:14.597Z,47.70
2018-02-07T23:29:42.188Z,45.00
2018-02-07T23:32:09.913Z,39.33
2018-02-07T23:34:37.504Z,40.00
2018-02-07T23:37:05.176Z,42.33
2018-02-07T23:39:32.841Z,41.87
2018-02-07T23:42:00.420Z,45.93
2018-02-07T23:44:28.022Z,37.47
2018-02-07T23:46:57.098Z,37.67
2018-02-07T23:49:24.734Z,35.40
2018-02-07T23:51:52.357Z,36.73
2018-02-07T23:54:20.151Z,43.80
2018-02-07T23:56:47.752Z,43.27
2018-02-07T23:59:15.374Z,38.03
